Terminal Aerodrome Forecast
Issued by NWS

Home | Current Version | Previous Version | Text Only | Print | Product List | Glossary On
Versions: 1 2 3 4 5 6 7 8 9 10 11 12 13 14 15 16 17 18 19 20 21 22 23 24 25 26
000
FTUS44 KLIX 182354
TAFHDC
TAF
KHDC 182354Z 1900/1924 16011G16KT 5SM TSRA BR BKN012 OVC024CB
      TEMPO 1900/1901 1SM +TSRA OVC008CB
     FM190200 20013KT P6SM VCTS SCT008CB BKN025
     FM190600 30010KT P6SM OVC010
     FM191100 31008KT P6SM FEW010 SCT030=

USA.gov is the U.S. government's official web portal to all federal, state and local government web resources and services.